Time;durP1;ratioP1;P1;durP2;ratioP2;P2;SDS_P1;SDS_P2;PMS_P1;PMS_P2;Temp;Humidity;BMP_temperature;BMP_pressure;BME280_temperature;BME280_humidity;BME280_pressure;Samples;Min_cycle;Max_cycle;Signal;HPM_P1;HPM_P2
2024/01/16 00:00:49;;;;;;;7.28;3.78;;;;;;;-0.95;100.00;100684.38;5034055;28;20056;-79
2024/01/16 00:03:16;;;;;;;3.88;3.45;;;;;;;-1.01;100.00;100684.94;5016249;28;20034;-78
2024/01/16 00:05:41;;;;;;;7.07;3.85;;;;;;;-1.02;100.00;100680.66;5033893;28;20030;-79
2024/01/16 00:08:06;;;;;;;7.68;4.97;;;;;;;-1.12;100.00;100676.44;5033909;28;20109;-78
2024/01/16 00:10:32;;;;;;;7.70;3.80;;;;;;;-1.07;100.00;100682.06;5033660;28;20025;-79
2024/01/16 00:12:57;;;;;;;4.25;3.58;;;;;;;-1.15;100.00;100674.09;5033874;28;20095;-78
2024/01/16 00:15:22;;;;;;;4.50;3.92;;;;;;;-1.06;100.00;100676.69;5015948;28;20025;-79
2024/01/16 00:17:48;;;;;;;6.70;3.75;;;;;;;-0.97;100.00;100686.31;5033799;28;20064;-79
2024/01/16 00:20:13;;;;;;;9.52;4.43;;;;;;;-0.97;100.00;100677.63;5033635;28;20048;-79
2024/01/16 00:22:39;;;;;;;6.20;4.55;;;;;;;-0.99;100.00;100677.75;5015929;28;20029;-79
2024/01/16 00:25:04;;;;;;;5.05;3.75;;;;;;;-1.03;100.00;100675.56;5033717;28;20025;-81
2024/01/16 00:27:30;;;;;;;6.60;4.07;;;;;;;-1.04;100.00;100681.78;5015837;28;20033;-79
2024/01/16 00:29:55;;;;;;;10.13;4.25;;;;;;;-1.00;100.00;100680.53;5033596;28;20117;-79
2024/01/16 00:32:21;;;;;;;6.18;4.00;;;;;;;-0.91;100.00;100699.81;5033538;28;20057;-79
2024/01/16 00:34:46;;;;;;;8.43;5.15;;;;;;;-0.94;100.00;100704.38;5033529;28;20029;-79
2024/01/16 00:37:11;;;;;;;8.60;4.90;;;;;;;-0.88;100.00;100718.72;5033476;28;20440;-79
2024/01/16 00:39:37;;;;;;;7.53;4.55;;;;;;;-0.78;100.00;100702.97;5033534;28;20132;-78
2024/01/16 00:42:03;;;;;;;6.00;3.80;;;;;;;-0.79;100.00;100675.06;5033494;28;20018;-77
2024/01/16 00:44:28;;;;;;;6.55;4.00;;;;;;;-0.87;100.00;100674.94;5033258;28;20033;-77
2024/01/16 00:46:54;;;;;;;6.50;4.10;;;;;;;-0.90;100.00;100683.94;5015588;28;20029;-77
2024/01/16 00:49:19;;;;;;;5.50;3.50;;;;;;;-0.87;100.00;100688.88;5033205;28;20474;-77
2024/01/16 00:51:45;;;;;;;6.47;4.20;;;;;;;-1.00;100.00;100683.97;5015541;28;20389;-77
2024/01/16 00:54:10;;;;;;;7.60;3.85;;;;;;;-0.93;100.00;100687.66;5015469;28;20036;-77
2024/01/16 00:56:36;;;;;;;7.72;3.65;;;;;;;-0.94;100.00;100688.66;5032694;28;20026;-77
2024/01/16 00:59:01;;;;;;;8.35;4.55;;;;;;;-1.00;100.00;100677.91;5033102;28;20017;-78
2024/01/16 01:01:27;;;;;;;7.28;3.30;;;;;;;-1.02;100.00;100699.03;5015329;28;20056;-78
2024/01/16 01:03:52;;;;;;;5.85;4.47;;;;;;;-0.98;100.00;100702.19;5033036;28;20021;-77
2024/01/16 01:06:18;;;;;;;7.97;3.72;;;;;;;-0.94;100.00;100698.31;5015279;28;20025;-77
2024/01/16 01:08:44;;;;;;;8.20;3.75;;;;;;;-0.92;100.00;100701.63;5032933;28;20080;-76
2024/01/16 01:11:09;;;;;;;10.13;4.07;;;;;;;-0.99;100.00;100695.31;5015234;28;20493;-78
2024/01/16 01:13:34;;;;;;;7.55;4.18;;;;;;;-0.93;100.00;100700.78;5015042;28;20390;-79
2024/01/16 01:16:00;;;;;;;7.15;4.05;;;;;;;-1.00;100.00;100689.22;5032891;28;20029;-78
2024/01/16 01:18:26;;;;;;;7.72;4.18;;;;;;;-0.93;100.00;100700.78;5032754;28;20034;-79
2024/01/16 01:20:51;;;;;;;7.35;4.15;;;;;;;-0.93;100.00;100702.59;5032864;28;20049;-78
2024/01/16 01:23:16;;;;;;;7.60;4.30;;;;;;;-0.93;100.00;100689.47;5014888;28;20391;-79
2024/01/16 01:25:42;;;;;;;7.55;4.00;;;;;;;-0.97;100.00;100685.47;5032628;28;20037;-78
2024/01/16 01:28:08;;;;;;;10.55;3.75;;;;;;;-0.94;100.00;100685.19;5032748;28;20057;-77
2024/01/16 01:30:33;;;;;;;5.10;3.20;;;;;;;-0.93;100.00;100682.44;5032672;28;20489;-78
2024/01/16 01:32:59;;;;;;;12.07;3.78;;;;;;;-0.90;100.00;100688.34;5032600;28;20441;-79
2024/01/16 01:35:24;;;;;;;6.50;4.32;;;;;;;-0.95;100.00;100689.63;5032445;28;20026;-78
2024/01/16 01:37:49;;;;;;;8.27;3.63;;;;;;;-1.02;100.00;100678.03;5032600;28;20164;-78
2024/01/16 01:40:15;;;;;;;8.18;3.72;;;;;;;-0.99;100.00;100688.25;5032551;28;20659;-78
2024/01/16 01:42:42;;;;;;;6.57;3.55;;;;;;;-0.93;100.00;100690.28;5014807;28;20490;-78
2024/01/16 01:45:09;;;;;;;5.93;3.10;;;;;;;-0.94;100.00;100693.06;5014657;28;20025;-79
2024/01/16 01:47:35;;;;;;;6.57;3.38;;;;;;;-0.94;100.00;100698.31;5032296;28;20478;-78
2024/01/16 01:50:03;;;;;;;11.95;4.53;;;;;;;-0.90;100.00;100696.22;5014613;28;20026;-79
2024/01/16 01:52:30;;;;;;;7.97;3.55;;;;;;;-0.84;100.00;100699.13;5014463;28;20037;-79
2024/01/16 01:54:56;;;;;;;10.43;4.20;;;;;;;-0.93;100.00;100700.78;5032295;28;20037;-79
2024/01/16 01:57:21;;;;;;;5.72;3.13;;;;;;;-0.79;100.00;100703.94;5032314;28;20036;-79
2024/01/16 01:59:46;;;;;;;5.93;3.55;;;;;;;-0.89;100.00;100696.09;5032356;28;20108;-80
2024/01/16 02:02:12;;;;;;;10.55;3.53;;;;;;;-0.88;100.00;100710.03;5014361;28;20037;-79
2024/01/16 02:04:40;;;;;;;6.55;3.13;;;;;;;-0.89;100.00;100719.69;5014410;28;20502;-79
2024/01/16 02:07:06;;;;;;;6.32;3.40;;;;;;;-0.91;100.00;100707.69;5032035;28;20029;-79
2024/01/16 02:09:31;;;;;;;6.28;2.83;;;;;;;-0.85;100.00;100697.47;5013508;28;20446;-79
2024/01/16 02:11:57;;;;;;;8.00;3.42;;;;;;;-0.96;100.00;100685.34;5014336;28;20030;-79
2024/01/16 02:14:22;;;;;;;5.88;3.33;;;;;;;-0.82;100.00;100696.34;5032025;28;20482;-79
2024/01/16 02:16:48;;;;;;;7.45;3.13;;;;;;;-0.88;100.00;100705.59;5032173;28;20025;-79
2024/01/16 02:19:13;;;;;;;8.63;3.10;;;;;;;-0.87;100.00;100709.88;5014107;28;20540;-78
2024/01/16 02:21:46;;;;;;;4.43;2.85;;;;;;;-0.82;100.00;100696.34;5014222;28;20030;-79
2024/01/16 02:24:13;;;;;;;5.97;3.10;;;;;;;-0.88;100.00;100695.09;5031768;28;20096;-78
2024/01/16 02:26:38;;;;;;;5.00;2.88;;;;;;;-0.75;100.00;100695.63;5031824;28;20029;-78
2024/01/16 02:29:04;;;;;;;5.45;2.75;;;;;;;-0.74;100.00;100705.16;5031844;28;20378;-79
2024/01/16 02:31:30;;;;;;;4.35;2.30;;;;;;;-0.84;100.00;100703.56;5031893;28;20033;-79
2024/01/16 02:33:55;;;;;;;4.93;3.92;;;;;;;-0.86;100.00;100721.25;5014061;28;20025;-79
2024/01/16 02:36:21;;;;;;;8.23;3.47;;;;;;;-0.87;100.00;100725.63;5031573;28;20029;-78
2024/01/16 02:38:46;;;;;;;6.30;3.13;;;;;;;-0.93;100.00;100723.59;5031690;28;20098;-78
2024/01/16 02:41:14;;;;;;;4.03;2.72;;;;;;;-0.93;100.00;100721.78;5031739;28;20029;-79
2024/01/16 02:43:40;;;;;;;6.60;2.95;;;;;;;-0.92;100.00;100722.63;5031567;28;20025;-78
2024/01/16 02:46:05;;;;;;;8.82;3.40;;;;;;;-0.85;100.00;100725.53;5014136;28;20037;-79
2024/01/16 02:48:30;;;;;;;5.55;3.33;;;;;;;-0.93;100.00;100713.91;5013717;28;20051;-79
2024/01/16 02:50:55;;;;;;;7.13;3.30;;;;;;;-0.90;100.00;100722.47;5031505;28;20398;-79
2024/01/16 02:53:21;;;;;;;6.80;2.83;;;;;;;-0.87;100.00;100716.94;5013657;28;20021;-79
2024/01/16 02:55:46;;;;;;;3.65;2.63;;;;;;;-0.89;100.00;100721.50;5013813;28;20096;-78
2024/01/16 02:58:11;;;;;;;4.10;3.13;;;;;;;-0.86;100.00;100727.31;5031456;28;20084;-79
2024/01/16 03:00:37;;;;;;;8.50;3.53;;;;;;;-0.85;100.00;100736.03;5031472;28;20033;-78
2024/01/16 03:03:04;;;;;;;7.18;3.00;;;;;;;-0.79;100.00;100724.94;5013767;28;20033;-79
2024/01/16 03:05:29;;;;;;;7.72;3.38;;;;;;;-0.93;100.00;100721.78;5031296;28;20056;-79
2024/01/16 03:07:55;;;;;;;6.30;3.10;;;;;;;-1.01;100.00;100716.44;5013437;28;20025;-79
2024/01/16 03:10:20;;;;;;;7.97;3.35;;;;;;;-0.99;100.00;100722.38;5031196;28;20497;-79
2024/01/16 03:12:45;;;;;;;9.15;3.28;;;;;;;-1.06;100.00;100716.03;5031276;28;20032;-78
2024/01/16 03:15:11;;;;;;;12.30;3.20;;;;;;;-1.07;100.00;100717.00;5031231;28;20482;-79
2024/01/16 03:17:37;;;;;;;5.88;2.95;;;;;;;-1.12;100.00;100719.22;5013501;28;20057;-79
2024/01/16 03:20:03;;;;;;;3.53;2.83;;;;;;;-1.16;100.00;100715.22;5032811;28;20478;-79
2024/01/16 03:22:28;;;;;;;4.28;3.10;;;;;;;-1.19;100.00;100717.28;5034657;28;20379;-79
2024/01/16 03:24:54;;;;;;;4.45;2.70;;;;;;;-1.16;100.00;100736.19;5034598;28;20037;-79
2024/01/16 03:27:19;;;;;;;6.10;3.40;;;;;;;-1.26;100.00;100712.63;5034793;28;20037;-79
2024/01/16 03:29:45;;;;;;;6.00;2.92;;;;;;;-1.20;100.00;100734.00;5016831;28;20029;-79
2024/01/16 03:32:10;;;;;;;7.28;3.35;;;;;;;-1.32;100.00;100725.47;5016952;28;20036;-79
2024/01/16 03:34:36;;;;;;;9.65;4.05;;;;;;;-1.26;100.00;100732.78;5034591;28;20108;-80
2024/01/16 03:37:01;;;;;;;8.13;3.67;;;;;;;-1.28;100.00;100721.59;5034494;28;20028;-79
2024/01/16 03:39:26;;;;;;;8.05;3.00;;;;;;;-1.20;100.00;100726.13;5034462;28;20034;-79
2024/01/16 03:41:52;;;;;;;5.57;3.38;;;;;;;-1.20;100.00;100720.88;5016643;28;20036;-78
2024/01/16 03:44:17;;;;;;;8.93;3.33;;;;;;;-1.16;100.00;100720.47;5034378;28;20088;-80
2024/01/16 03:46:42;;;;;;;7.78;3.20;;;;;;;-1.15;100.00;100714.28;5016493;28;20116;-79
2024/01/16 03:49:08;;;;;;;11.55;3.40;;;;;;;-1.14;100.00;100715.09;5034312;28;20409;-79
2024/01/16 03:51:33;;;;;;;7.35;3.45;;;;;;;-1.13;100.00;100709.72;5034173;28;20029;-78
2024/01/16 03:53:58;;;;;;;6.72;4.03;;;;;;;-1.13;100.00;100709.72;5034224;28;20359;-78
2024/01/16 03:56:24;;;;;;;11.35;4.10;;;;;;;-1.10;100.00;100698.94;5034046;28;20025;-79
2024/01/16 03:58:49;;;;;;;8.07;3.75;;;;;;;-1.15;100.00;100709.03;5016301;28;20033;-79
2024/01/16 04:01:15;;;;;;;11.45;4.63;;;;;;;-1.19;100.00;100693.69;5034076;28;20040;-79
2024/01/16 04:03:40;;;;;;;10.88;4.55;;;;;;;-1.16;100.00;100699.47;5016341;28;20045;-79
2024/01/16 04:06:18;;;;;;;6.45;4.07;;;;;;;-1.19;100.00;100696.31;5034188;28;20028;-79
2024/01/16 04:08:44;;;;;;;13.43;6.32;;;;;;;-1.22;100.00;100700.03;5016389;28;20040;-79
2024/01/16 04:11:14;;;;;;;12.50;7.00;;;;;;;-1.34;100.00;100685.44;5033947;28;20030;-78
2024/01/16 04:13:40;;;;;;;12.25;6.45;;;;;;;-1.32;100.00;100684.34;5016148;28;20026;-79
2024/01/16 04:16:06;;;;;;;13.07;7.60;;;;;;;-1.35;100.00;100673.31;5033877;28;20033;-78
2024/01/16 04:18:37;;;;;;;22.65;9.50;;;;;;;-1.35;100.00;100687.25;5033674;28;20436;-79
2024/01/16 04:21:02;;;;;;;16.38;8.52;;;;;;;-1.39;100.00;100685.06;5033748;28;20025;-78
2024/01/16 04:23:28;;;;;;;19.02;9.50;;;;;;;-1.47;100.00;100672.63;5033702;28;20049;-78
2024/01/16 04:25:53;;;;;;;23.70;10.85;;;;;;;-1.45;100.00;100681.16;5033773;28;20057;-79
2024/01/16 04:28:18;;;;;;;19.48;9.80;;;;;;;-1.51;100.00;100670.44;5033629;28;20116;-79
2024/01/16 04:30:44;;;;;;;16.77;8.80;;;;;;;-1.51;100.00;100665.19;5015179;28;20095;-79
2024/01/16 04:33:09;;;;;;;15.70;7.85;;;;;;;-1.58;100.00;100667.53;5033459;28;20049;-79
2024/01/16 04:35:34;;;;;;;19.38;9.10;;;;;;;-1.64;100.00;100658.44;5033748;28;20029;-79
2024/01/16 04:38:00;;;;;;;19.20;9.80;;;;;;;-1.62;100.00;100664.38;5015737;28;20468;-79
2024/01/16 04:40:25;;;;;;;22.10;10.27;;;;;;;-1.63;100.00;100660.09;5015728;28;20112;-79
2024/01/16 04:42:50;;;;;;;20.83;9.85;;;;;;;-1.57;100.00;100670.03;5033514;28;20021;-79
2024/01/16 04:45:16;;;;;;;14.38;9.25;;;;;;;-1.66;100.00;100660.38;5033483;28;20038;-78
2024/01/16 04:47:42;;;;;;;17.27;9.18;;;;;;;-1.66;100.00;100659.56;5033324;28;20363;-78
2024/01/16 04:50:08;;;;;;;18.75;9.45;;;;;;;-1.64;100.00;100671.56;5033296;28;20597;-79
2024/01/16 04:52:33;;;;;;;15.23;8.30;;;;;;;-1.65;100.00;100672.53;5033359;28;20100;-78
2024/01/16 04:54:58;;;;;;;27.63;10.02;;;;;;;-1.72;100.00;100665.38;5033264;28;20049;-78
2024/01/16 04:57:24;;;;;;;21.90;8.60;;;;;;;-1.72;100.00;100676.69;5033175;28;20033;-78
2024/01/16 04:59:49;;;;;;;17.83;9.25;;;;;;;-1.69;100.00;100683.44;5033185;28;20482;-78
2024/01/16 05:02:16;;;;;;;17.17;10.20;;;;;;;-1.68;100.00;100667.56;5033091;28;20032;-77
2024/01/16 05:04:42;;;;;;;13.98;8.52;;;;;;;-1.77;100.00;100667.56;5033033;28;20030;-77
2024/01/16 05:07:07;;;;;;;18.40;10.18;;;;;;;-1.81;100.00;100669.63;5015309;28;20715;-77
2024/01/16 05:09:33;;;;;;;18.25;8.75;;;;;;;-1.75;100.00;100669.06;5033201;28;20033;-77
2024/01/16 05:11:58;;;;;;;18.67;9.38;;;;;;;-1.75;100.00;100670.84;5015126;28;20120;-77
2024/01/16 05:14:25;;;;;;;14.90;8.45;;;;;;;-1.77;100.00;100657.91;5033044;28;20129;-77
2024/01/16 05:16:51;;;;;;;12.07;9.00;;;;;;;-1.78;100.00;100645.75;5032908;28;20033;-78
2024/01/16 05:19:16;;;;;;;15.30;8.93;;;;;;;-1.80;100.00;100652.09;5032854;28;20482;-78
2024/01/16 05:21:41;;;;;;;21.25;10.00;;;;;;;-1.82;100.00;100652.25;5032829;28;20057;-78
2024/01/16 05:24:07;;;;;;;24.30;11.13;;;;;;;-1.82;100.00;100649.63;5032656;28;20017;-78
2024/01/16 05:26:33;;;;;;;20.30;10.32;;;;;;;-1.81;100.00;100646.03;5032694;28;20397;-78
2024/01/16 05:28:58;;;;;;;16.80;9.45;;;;;;;-1.85;100.00;100649.09;5032705;28;20026;-78
2024/01/16 05:31:23;;;;;;;20.13;9.40;;;;;;;-1.86;100.00;100648.25;5032637;28;20037;-78
2024/01/16 05:33:49;;;;;;;13.80;8.65;;;;;;;-1.87;100.00;100651.84;5032746;28;20053;-78
2024/01/16 05:36:14;;;;;;;18.50;9.50;;;;;;;-1.84;100.00;100632.41;5032540;28;20104;-77
2024/01/16 05:38:39;;;;;;;17.42;10.98;;;;;;;-1.84;100.00;100630.59;5032525;28;20071;-77
2024/01/16 05:41:05;;;;;;;15.50;9.15;;;;;;;-1.86;100.00;100643.03;5032479;28;20021;-78
2024/01/16 05:43:30;;;;;;;12.45;8.60;;;;;;;-1.91;100.00;100640.00;5032490;28;20033;-77
2024/01/16 05:45:55;;;;;;;16.92;9.90;;;;;;;-1.95;100.00;100638.63;5032452;28;20129;-78
2024/01/16 05:48:21;;;;;;;16.60;9.32;;;;;;;-1.96;100.00;100637.78;5032401;28;20025;-78
2024/01/16 05:50:46;;;;;;;15.00;8.40;;;;;;;-2.06;100.00;100625.63;5032297;28;20021;-78
2024/01/16 05:53:11;;;;;;;11.27;8.60;;;;;;;-1.99;100.00;100632.84;5032713;28;20303;-78
2024/01/16 05:55:37;;;;;;;15.23;7.32;;;;;;;-1.91;100.00;100629.50;5032286;28;20505;-79
2024/01/16 05:58:02;;;;;;;23.08;10.82;;;;;;;-2.07;100.00;100624.81;5032290;28;20079;-79
2024/01/16 06:00:28;;;;;;;17.70;8.35;;;;;;;-2.05;100.00;100632.53;5032079;28;20482;-77
2024/01/16 06:02:53;;;;;;;14.43;7.07;;;;;;;-2.15;100.00;100627.31;5032254;28;20026;-79
2024/01/16 06:05:18;;;;;;;18.20;9.48;;;;;;;-2.15;100.00;100621.22;5032146;28;20030;-78
2024/01/16 06:07:44;;;;;;;19.67;8.13;;;;;;;-2.17;100.00;100626.63;5032023;28;20025;-78
2024/01/16 06:10:12;;;;;;;16.55;7.70;;;;;;;-2.13;100.00;100632.41;5014416;28;20029;-78
2024/01/16 06:12:37;;;;;;;15.15;7.88;;;;;;;-2.23;100.00;100630.63;5014331;28;20022;-78
2024/01/16 06:15:03;;;;;;;15.82;6.90;;;;;;;-2.22;100.00;100624.41;5032243;28;20555;-78
2024/01/16 06:17:28;;;;;;;11.07;7.35;;;;;;;-2.17;100.00;100626.63;5031948;28;20025;-78
2024/01/16 06:19:54;;;;;;;16.38;8.15;;;;;;;-2.15;100.00;100624.69;5013947;28;20038;-77
2024/01/16 06:22:19;;;;;;;16.52;7.18;;;;;;;-2.07;100.00;100634.47;5014195;28;20108;-78
2024/01/16 06:24:44;;;;;;;13.15;8.63;;;;;;;-2.17;100.00;100621.38;5014265;28;20075;-78
2024/01/16 06:27:10;;;;;;;17.95;7.50;;;;;;;-2.14;100.00;100626.34;5014030;28;20052;-80
2024/01/16 06:29:35;;;;;;;13.65;6.88;;;;;;;-2.14;100.00;100622.88;5031640;28;20385;-80
2024/01/16 06:32:01;;;;;;;13.70;9.07;;;;;;;-2.16;100.00;100625.66;5031722;28;20033;-79
2024/01/16 06:34:27;;;;;;;13.98;8.02;;;;;;;-2.10;100.00;100626.88;5013989;28;20489;-78
2024/01/16 06:36:52;;;;;;;14.35;7.22;;;;;;;-2.16;100.00;100624.81;5013965;28;20032;-80
2024/01/16 06:39:18;;;;;;;13.95;6.80;;;;;;;-2.16;100.00;100624.81;5013988;28;20478;-80
2024/01/16 06:41:43;;;;;;;15.70;6.10;;;;;;;-2.14;100.00;100636.81;5013999;28;20068;-81
2024/01/16 06:44:09;;;;;;;16.80;7.55;;;;;;;-2.21;100.00;100628.69;5031772;28;20022;-81
2024/01/16 06:46:34;;;;;;;14.75;6.47;;;;;;;-2.21;100.00;100639.16;5013817;28;20091;-80
2024/01/16 06:49:00;;;;;;;13.93;6.80;;;;;;;-2.20;100.00;100629.50;5031608;28;20024;-80
2024/01/16 06:51:25;;;;;;;14.50;7.40;;;;;;;-2.20;100.00;100638.19;5031962;28;20029;-79
2024/01/16 06:53:51;;;;;;;13.32;7.13;;;;;;;-2.20;100.00;100640.81;5032329;28;20084;-79
2024/01/16 06:56:16;;;;;;;15.98;8.52;;;;;;;-2.16;100.00;100643.97;5038154;28;20037;-81
2024/01/16 06:58:41;;;;;;;9.35;5.68;;;;;;;-2.17;100.00;100629.22;5020332;28;20037;-80
2024/01/16 07:01:09;;;;;;;11.45;5.90;;;;;;;-2.12;100.00;100640.13;5020179;28;20040;-80
2024/01/16 07:03:34;;;;;;;9.85;6.28;;;;;;;-2.20;100.00;100642.59;5020231;28;20021;-80
2024/01/16 07:05:59;;;;;;;9.30;5.38;;;;;;;-2.18;100.00;100645.91;5037888;28;20035;-80
2024/01/16 07:08:25;;;;;;;13.85;7.53;;;;;;;-2.18;100.00;100651.16;5037758;28;20070;-80
2024/01/16 07:10:50;;;;;;;12.23;6.65;;;;;;;-2.29;100.00;100646.88;5037802;28;20032;-80
2024/01/16 07:13:16;;;;;;;15.02;6.82;;;;;;;-2.22;100.00;100642.75;5037826;28;20529;-79
2024/01/16 07:15:41;;;;;;;8.43;5.80;;;;;;;-2.22;100.00;100658.44;5020111;28;20026;-80
2024/01/16 07:18:06;;;;;;;10.82;5.82;;;;;;;-2.19;100.00;100652.13;5037756;28;20037;-80
2024/01/16 07:20:32;;;;;;;23.58;6.28;;;;;;;-2.26;100.00;100654.47;5037704;28;20041;-82
2024/01/16 07:22:57;;;;;;;11.27;5.68;;;;;;;-2.26;100.00;100651.84;5037725;28;20053;-80
2024/01/16 07:25:23;;;;;;;7.90;5.40;;;;;;;-2.25;100.00;100657.91;5019920;28;20033;-81
2024/01/16 07:27:49;;;;;;;9.65;6.40;;;;;;;-2.25;100.00;100668.38;5037580;28;20474;-80
2024/01/16 07:30:15;;;;;;;12.95;6.45;;;;;;;-2.21;100.00;100659.28;5037526;28;20026;-78
2024/01/16 07:32:40;;;;;;;10.43;5.53;;;;;;;-2.24;100.00;100667.41;5037571;28;20386;-77
2024/01/16 07:35:06;;;;;;;8.77;4.72;;;;;;;-2.22;100.00;100661.06;5020207;28;20028;-78
2024/01/16 07:37:32;;;;;;;10.57;7.00;;;;;;;-2.22;100.00;100657.63;5019872;28;20029;-79
2024/01/16 07:39:58;;;;;;;13.68;6.03;;;;;;;-2.19;100.00;100668.66;5019829;28;20564;-83
2024/01/16 07:42:23;;;;;;;16.88;5.93;;;;;;;-2.11;100.00;100672.38;5037649;28;20113;-76
2024/01/16 07:44:49;;;;;;;11.90;4.97;;;;;;;-2.10;100.00;100669.63;5037507;28;20075;-79
2024/01/16 07:47:15;;;;;;;13.02;7.05;;;;;;;-2.12;100.00;100662.88;5037584;28;20053;-80
2024/01/16 07:49:41;;;;;;;14.25;6.75;;;;;;;-2.09;100.00;100679.13;5037477;28;20112;-79
2024/01/16 07:52:06;;;;;;;8.57;5.65;;;;;;;-2.08;100.00;100675.53;5019873;28;20025;-80
2024/01/16 07:54:32;;;;;;;11.40;7.65;;;;;;;-2.15;100.00;100671.00;5037532;28;20363;-77
2024/01/16 07:56:57;;;;;;;13.50;5.80;;;;;;;-2.09;100.00;100684.38;5037488;28;20060;-79
2024/01/16 07:59:24;;;;;;;7.05;4.72;;;;;;;-2.01;100.00;100681.09;5019449;28;20032;-78
2024/01/16 08:01:49;;;;;;;12.52;6.60;;;;;;;-2.04;100.00;100689.19;5037303;28;20061;-77
2024/01/16 08:04:14;;;;;;;11.00;5.85;;;;;;;-1.94;100.00;100682.19;5037172;28;20480;-77
2024/01/16 08:06:40;;;;;;;12.45;5.10;;;;;;;-1.93;100.00;100691.69;5015845;28;20497;-79
2024/01/16 08:09:06;;;;;;;10.60;5.95;;;;;;;-1.98;100.00;100693.91;5016128;28;20512;-81
2024/01/16 08:11:31;;;;;;;8.50;4.93;;;;;;;-1.98;100.00;100696.53;5033890;28;20045;-76
2024/01/16 08:13:56;;;;;;;7.70;4.47;;;;;;;-2.05;100.00;100679.69;5033735;28;20044;-77
2024/01/16 08:16:22;;;;;;;10.30;5.90;;;;;;;-2.03;100.00;100683.00;5033836;28;20446;-77
2024/01/16 08:18:47;;;;;;;9.35;5.63;;;;;;;-2.06;100.00;100678.03;5033901;28;20441;-78
2024/01/16 08:21:13;;;;;;;8.85;5.93;;;;;;;-2.01;100.00;100686.31;5033707;28;20041;-79
2024/01/16 08:23:38;;;;;;;9.30;5.95;;;;;;;-2.04;100.00;100689.19;5033679;28;20031;-80
2024/01/16 08:26:04;;;;;;;11.50;7.18;;;;;;;-2.01;100.00;100686.31;5033569;28;20029;-78
2024/01/16 08:28:30;;;;;;;10.40;5.35;;;;;;;-2.05;100.00;100687.53;5033451;28;20578;-77
2024/01/16 08:30:55;;;;;;;12.55;5.57;;;;;;;-2.05;100.00;100684.91;5033547;28;20022;-79
2024/01/16 08:33:20;;;;;;;9.90;5.60;;;;;;;-2.00;100.00;100694.03;5033585;28;20035;-78
2024/01/16 08:35:46;;;;;;;7.45;5.35;;;;;;;-1.98;100.00;100689.50;5015720;28;20025;-79
2024/01/16 08:38:11;;;;;;;8.23;5.00;;;;;;;-1.95;100.00;100697.06;5033392;28;20378;-77
2024/01/16 08:40:37;;;;;;;8.38;5.82;;;;;;;-2.01;100.00;100699.41;5015650;28;20429;-77
2024/01/16 08:43:03;;;;;;;11.23;5.68;;;;;;;-1.94;100.00;100697.91;5033179;28;20025;-81
2024/01/16 08:45:30;;;;;;;14.18;6.22;;;;;;;-1.99;100.00;100684.41;5015619;28;20055;-83
2024/01/16 08:47:55;;;;;;;7.03;4.93;;;;;;;-1.93;100.00;100696.94;5033305;28;20033;-76
2024/01/16 08:50:20;;;;;;;9.77;5.82;;;;;;;-1.92;100.00;100690.72;5033393;28;20037;-78
2024/01/16 08:52:46;;;;;;;7.90;5.15;;;;;;;-1.87;100.00;100696.38;5015498;28;20021;-79
2024/01/16 08:55:11;;;;;;;9.27;6.63;;;;;;;-1.92;100.00;100695.97;5033293;28;20033;-81
2024/01/16 08:57:37;;;;;;;14.95;5.00;;;;;;;-1.93;100.00;100691.69;5033275;28;20032;-78
2024/01/16 09:00:06;;;;;;;8.20;5.57;;;;;;;-1.87;100.00;100697.22;5033127;28;20081;-77
2024/01/16 09:02:31;;;;;;;9.85;6.10;;;;;;;-1.86;100.00;100692.81;5012533;28;20448;-81
2024/01/16 09:04:58;;;;;;;9.75;6.40;;;;;;;-1.86;100.00;100695.41;5015376;28;20121;-80
2024/01/16 09:07:27;;;;;;;26.52;5.95;;;;;;;-1.81;100.00;100695.00;5015309;28;20513;-76
2024/01/16 09:09:52;;;;;;;7.53;4.97;;;;;;;-1.73;100.00;100685.50;5032876;28;20033;-77
2024/01/16 09:12:18;;;;;;;7.60;4.50;;;;;;;-1.70;100.00;100687.84;5032876;28;20057;-79
2024/01/16 09:14:43;;;;;;;9.68;5.10;;;;;;;-1.69;100.00;100691.28;5032883;28;20104;-81
2024/01/16 09:17:09;;;;;;;7.68;5.30;;;;;;;-1.56;100.00;100690.03;5032561;28;20121;-79
2024/01/16 09:19:34;;;;;;;9.85;5.78;;;;;;;-1.63;100.00;100696.81;5014912;28;20092;-79
2024/01/16 09:22:00;;;;;;;7.57;4.82;;;;;;;-1.57;100.00;100684.94;5032684;28;20482;-79
2024/01/16 09:24:25;;;;;;;6.63;4.18;;;;;;;-1.51;100.00;100688.78;5032717;28;20033;-76
2024/01/16 09:27:10;;;;;;;9.95;6.10;;;;;;;-1.46;100.00;100689.19;5032605;28;20030;-83
2024/01/16 09:29:39;;;;;;;8.65;4.93;;;;;;;-1.34;100.00;100688.06;5033001;28;20543;-79
2024/01/16 09:32:05;;;;;;;9.35;5.50;;;;;;;-1.30;100.00;100685.03;5015747;28;20076;-78
2024/01/16 09:34:30;;;;;;;10.65;5.85;;;;;;;-1.26;100.00;100678.53;5015638;28;20558;-80
2024/01/16 09:36:59;;;;;;;7.88;4.93;;;;;;;-1.27;100.00;100665.56;5015296;28;20018;-80
2024/01/16 09:39:24;;;;;;;9.80;5.80;;;;;;;-1.20;100.00;100671.06;5033167;28;20478;-86
2024/01/16 09:42:07;;;;;;;8.38;3.67;;;;;;;-1.15;100.00;100658.38;5033478;28;20021;-82
2024/01/16 09:45:46;;;;;;;12.57;5.80;;;;;;;-1.09;100.00;100687.47;5032906;28;20018;-83
2024/01/16 09:51:24;;;;;;;6.00;4.35;;;;;;;-1.05;100.00;100682.75;5032883;28;20040;-81
2024/01/16 09:53:49;;;;;;;8.07;6.03;;;;;;;-1.07;100.00;100677.66;5015204;28;20033;-78
2024/01/16 09:56:16;;;;;;;9.63;5.85;;;;;;;-0.99;100.00;100690.88;5033416;28;20080;-82
2024/01/16 09:58:44;;;;;;;7.82;4.82;;;;;;;-0.98;100.00;100678.59;5033592;28;20038;-81
2024/01/16 10:01:39;;;;;;;9.55;6.40;;;;;;;-0.85;100.00;100684.34;5034396;28;20029;-84
2024/01/16 10:04:05;;;;;;;7.53;4.93;;;;;;;-0.84;100.00;100675.50;5033143;28;20421;-85
2024/01/16 10:06:33;;;;;;;11.27;5.75;;;;;;;-0.79;100.00;100682.94;5032481;28;20045;-83
2024/01/16 10:08:59;;;;;;;8.00;4.90;;;;;;;-0.83;100.00;100661.41;5033950;28;20076;-84
2024/01/16 10:12:08;;;;;;;6.70;4.93;;;;;;;-0.66;100.00;100681.63;5032215;28;20056;-80
2024/01/16 10:14:36;;;;;;;7.90;5.13;;;;;;;-0.70;100.00;100633.00;5014488;28;20037;-80
2024/01/16 10:17:09;;;;;;;8.05;5.40;;;;;;;-0.51;100.00;100670.66;5032192;28;20034;-81
2024/01/16 10:19:52;;;;;;;8.63;5.35;;;;;;;-0.55;100.00;100646.50;5014539;28;20077;-79
2024/01/16 10:22:24;;;;;;;9.45;5.95;;;;;;;0.09;100.00;100656.00;5014257;28;20026;-81
2024/01/16 10:24:50;;;;;;;10.02;5.90;;;;;;;0.86;100.00;100660.50;5014073;28;20386;-81
2024/01/16 10:27:19;;;;;;;9.77;5.45;;;;;;;1.12;100.00;100660.47;5014005;28;20026;-80
2024/01/16 10:29:57;;;;;;;9.15;5.20;;;;;;;1.63;100.00;100663.16;5030794;28;20041;-80
2024/01/16 10:32:30;;;;;;;9.75;5.72;;;;;;;1.91;100.00;100659.25;5031771;28;20029;-82
2024/01/16 10:35:06;;;;;;;;;;;;;;;2.29;100.00;100654.34;5032060;28;20087;-82
2024/01/16 10:37:42;;;;;;;10.23;5.38;;;;;;;2.40;100.00;100654.84;5031604;28;20364;-84
2024/01/16 10:40:08;;;;;;;7.25;4.68;;;;;;;2.47;100.00;100636.53;5031817;28;20064;-84
2024/01/16 10:42:33;;;;;;;8.02;4.15;;;;;;;2.73;100.00;100641.63;5031644;28;20053;-84
2024/01/16 10:44:58;;;;;;;7.25;4.35;;;;;;;2.65;100.00;100636.34;5015428;28;20021;-85
2024/01/16 10:47:24;;;;;;;10.63;5.18;;;;;;;2.77;100.00;100635.81;5016737;28;20041;-86
2024/01/16 10:49:49;;;;;;;7.55;4.78;;;;;;;2.93;100.00;100642.06;5033779;28;20112;-85
2024/01/16 10:52:14;;;;;;;12.00;4.90;;;;;;;2.75;100.00;100653.66;5032624;28;20108;-86
2024/01/16 10:54:46;;;;;;;8.52;5.53;;;;;;;2.39;100.00;100649.75;5014249;28;20478;-86
2024/01/16 10:57:14;;;;;;;11.77;6.07;;;;;;;2.29;100.00;100643.78;5031998;28;20436;-85
2024/01/16 10:59:44;;;;;;;7.80;4.72;;;;;;;2.06;100.00;100635.72;5032145;28;20025;-84
2024/01/16 11:02:12;;;;;;;6.68;4.95;;;;;;;2.40;100.00;100639.03;5031367;28;20489;-85
2024/01/16 11:04:39;;;;;;;9.40;4.25;;;;;;;2.92;100.00;100625.41;5031313;28;20075;-86
2024/01/16 11:07:05;;;;;;;7.78;4.75;;;;;;;3.28;100.00;100620.47;5031263;28;20033;-86
2024/01/16 11:09:31;;;;;;;8.18;4.82;;;;;;;2.92;100.00;100630.69;5031020;28;20025;-83
2024/01/16 11:11:57;;;;;;;7.60;4.43;;;;;;;2.67;100.00;100619.38;5013342;28;20148;-83
2024/01/16 11:14:25;;;;;;;8.50;4.90;;;;;;;2.75;100.00;100619.34;5031161;28;20386;-84